Time;durP1;ratioP1;P1;durP2;ratioP2;P2;SDS_P1;SDS_P2;PMS_P1;PMS_P2;Temp;Humidity;BMP_temperature;BMP_pressure;BME280_temperature;BME280_humidity;BME280_pressure;Samples;Min_cycle;Max_cycle;Signal;HPM_P1;HPM_P2
2022/01/14 00:01:52;;;;;;;5.00;4.50;;;;;;;17.31;38.45;99093.28;1795836;79;21469;-62
2022/01/14 00:04:19;;;;;;;5.25;4.75;;;;;;;17.35;38.18;99099.84;1784292;79;21075;-64
2022/01/14 00:06:45;;;;;;;5.75;5.17;;;;;;;17.34;38.23;99083.42;1794509;79;21379;-64
2022/01/14 00:09:13;;;;;;;5.22;4.72;;;;;;;17.47;38.19;99087.32;1786948;79;20948;-66
2022/01/14 00:11:54;;;;;;;5.37;4.87;;;;;;;17.47;39.00;99072.53;1737140;82;20982;-65
2022/01/14 00:16:44;;;;;;;5.37;4.87;;;;;;;17.64;37.83;99066.34;1724090;82;21183;-65
2022/01/14 00:19:11;;;;;;;5.97;5.40;;;;;;;17.58;37.70;99069.09;1754319;81;20936;-65
2022/01/14 00:21:39;;;;;;;6.03;5.42;;;;;;;17.36;38.41;99073.27;1723329;82;20955;-64
2022/01/14 00:24:14;;;;;;;5.97;5.37;;;;;;;17.21;38.60;99070.41;1768786;81;20935;-66
2022/01/14 00:32:17;;;;;;;6.17;5.45;;;;;;;17.34;38.47;99048.48;1743388;81;20905;-65
2022/01/14 00:34:39;;;;;;;5.15;4.67;;;;;;;17.28;38.44;99030.82;1724893;82;21069;-66
2022/01/14 00:37:07;;;;;;;5.45;4.95;;;;;;;17.35;38.56;99037.48;1731929;82;20992;-64
2022/01/14 00:39:33;;;;;;;5.47;4.92;;;;;;;17.37;38.50;99032.70;1735180;81;21010;-65
2022/01/14 00:42:00;;;;;;;5.78;4.55;;;;;;;17.36;38.45;99024.87;1747058;81;21103;-64
2022/01/14 00:44:26;;;;;;;5.12;4.62;;;;;;;17.35;38.10;99020.01;1734976;81;20947;-65
2022/01/14 00:46:53;;;;;;;5.47;4.97;;;;;;;17.28;38.03;99026.79;1760350;81;20974;-65
2022/01/14 00:49:20;;;;;;;5.15;4.65;;;;;;;17.22;38.63;99023.67;1730930;81;20971;-63
2022/01/14 00:51:47;;;;;;;5.35;4.85;;;;;;;17.18;38.19;99003.64;1727314;81;21437;-66
2022/01/14 00:54:14;;;;;;;5.45;4.78;;;;;;;17.18;37.99;99015.74;1779534;78;21121;-64
2022/01/14 00:59:15;;;;;;;4.83;4.25;;;;;;;17.20;37.51;99015.54;1797859;78;20930;-66
2022/01/14 01:01:50;;;;;;;5.15;4.65;;;;;;;17.24;37.37;99021.58;1784111;79;20963;-64
2022/01/14 01:04:34;;;;;;;5.08;4.50;;;;;;;17.25;37.29;99015.69;1783903;78;21535;-63
2022/01/14 01:06:56;;;;;;;5.05;4.55;;;;;;;17.23;37.10;99019.92;1815468;78;21179;-64
2022/01/14 01:09:26;;;;;;;4.87;4.37;;;;;;;17.22;36.95;99019.64;1795694;78;21446;-65
2022/01/14 01:12:12;;;;;;;5.22;4.37;;;;;;;17.23;36.92;99023.16;1779495;78;20970;-64
2022/01/14 01:14:52;;;;;;;6.37;4.95;;;;;;;17.17;37.29;99003.88;1776749;78;20995;-66
2022/01/14 01:17:16;;;;;;;5.70;5.20;;;;;;;17.09;37.09;98994.25;1794949;78;20960;-64
2022/01/14 01:19:43;;;;;;;5.28;4.40;;;;;;;17.00;37.19;98992.89;1786819;78;21138;-65
2022/01/14 01:22:10;;;;;;;5.40;4.80;;;;;;;17.00;37.24;98986.17;1789628;78;20930;-65
2022/01/14 01:24:38;;;;;;;5.28;4.47;;;;;;;17.05;37.03;98989.56;1780490;78;21445;-64
2022/01/14 01:27:08;;;;;;;6.40;4.78;;;;;;;16.95;37.01;98971.25;1783147;79;20938;-64
2022/01/14 01:32:04;;;;;;;5.55;5.05;;;;;;;16.99;37.07;98960.88;1795825;78;23277;-65
2022/01/14 01:34:30;;;;;;;5.03;4.50;;;;;;;17.01;37.44;98954.76;1788134;78;21535;-65
2022/01/14 01:36:57;;;;;;;5.62;5.12;;;;;;;16.99;37.45;98955.00;1794403;78;20973;-66
2022/01/14 01:39:27;;;;;;;5.35;4.87;;;;;;;17.01;37.23;98955.59;1789872;78;20944;-65
2022/01/14 01:42:00;;;;;;;5.12;4.62;;;;;;;17.07;37.41;98946.64;1782121;78;21033;-66
2022/01/14 01:44:28;;;;;;;5.70;4.92;;;;;;;17.14;37.28;98951.41;1798839;78;20883;-63
2022/01/14 01:46:55;;;;;;;5.95;4.70;;;;;;;17.19;37.05;98944.83;1787293;78;20978;-65
2022/01/14 01:49:27;;;;;;;5.70;5.10;;;;;;;17.17;37.25;98951.47;1791410;78;20904;-63
2022/01/14 01:51:55;;;;;;;7.10;5.92;;;;;;;17.17;37.38;98947.44;1796872;78;20943;-65
2022/01/14 01:54:22;;;;;;;5.97;5.37;;;;;;;17.07;37.49;98952.02;1793172;78;20938;-65
2022/01/14 01:56:51;;;;;;;6.55;5.55;;;;;;;17.10;37.40;98938.65;1788570;79;21212;-65
2022/01/14 01:59:20;;;;;;;6.22;5.62;;;;;;;17.06;37.40;98932.89;1790636;79;20930;-64
2022/01/14 02:01:46;;;;;;;5.80;4.78;;;;;;;17.03;37.51;98931.16;1792156;79;20974;-64
2022/01/14 02:04:13;;;;;;;5.42;4.92;;;;;;;17.08;37.27;98932.66;1797437;78;20896;-66
2022/01/14 02:06:40;;;;;;;5.60;5.00;;;;;;;17.06;37.11;98944.16;1739264;82;21025;-64
2022/01/14 02:09:08;;;;;;;5.87;5.35;;;;;;;17.10;36.93;98940.78;1785115;79;21118;-64
2022/01/14 02:11:34;;;;;;;6.15;5.50;;;;;;;17.14;37.52;98932.59;1786906;79;21517;-66
2022/01/14 02:14:05;;;;;;;6.42;5.83;;;;;;;17.20;37.85;98932.22;1790993;79;21379;-64
2022/01/14 02:16:35;;;;;;;7.47;5.65;;;;;;;17.22;37.47;98936.31;1793179;79;21405;-66
2022/01/14 02:19:25;;;;;;;5.95;5.35;;;;;;;17.20;37.52;98915.57;1800537;79;20957;-63
2022/01/14 02:27:12;;;;;;;6.03;5.42;;;;;;;17.36;38.83;98903.89;1790043;78;20922;-65
2022/01/14 02:29:39;;;;;;;5.70;5.08;;;;;;;17.44;37.75;98897.65;1795606;78;21075;-64
2022/01/14 02:32:07;;;;;;;6.08;5.28;;;;;;;17.44;37.70;98898.20;1792248;79;20980;-65
2022/01/14 02:34:33;;;;;;;5.92;5.30;;;;;;;17.42;37.37;98897.06;1799242;79;21140;-64
2022/01/14 02:37:02;;;;;;;6.53;5.90;;;;;;;17.43;37.17;98884.45;1737898;82;21002;-64
2022/01/14 02:39:29;;;;;;;6.90;5.78;;;;;;;17.49;36.87;98888.41;1797728;78;20895;-63
2022/01/14 02:41:55;;;;;;;7.12;6.37;;;;;;;17.46;36.88;98887.51;1802126;78;21504;-64
2022/01/14 02:44:27;;;;;;;5.67;5.10;;;;;;;17.48;36.96;98881.37;1790571;78;21072;-66
2022/01/14 02:47:03;;;;;;;6.65;5.78;;;;;;;17.41;36.87;98876.62;1784668;79;39025;-66
2022/01/14 02:49:30;;;;;;;5.97;5.47;;;;;;;17.38;36.76;98870.87;1799978;78;20906;-65
2022/01/14 02:51:58;;;;;;;6.22;5.58;;;;;;;17.34;36.70;98859.74;1793826;79;20932;-65
2022/01/14 02:54:32;;;;;;;6.55;5.12;;;;;;;17.40;36.78;98865.56;1778465;79;20989;-66
2022/01/14 02:56:57;;;;;;;5.65;5.12;;;;;;;17.46;36.52;98861.97;1786587;79;20986;-65
2022/01/14 02:59:23;;;;;;;5.67;5.17;;;;;;;17.39;36.46;98841.61;1786627;79;21131;-64
2022/01/14 03:01:50;;;;;;;5.80;5.30;;;;;;;17.41;36.95;98844.88;1780035;79;21034;-65
2022/01/14 03:04:19;;;;;;;6.42;5.35;;;;;;;17.37;36.69;98840.98;1713525;83;20982;-63
2022/01/14 03:06:46;;;;;;;6.22;5.65;;;;;;;17.43;36.87;98850.84;1788735;79;20897;-65
2022/01/14 03:09:13;;;;;;;6.58;5.62;;;;;;;17.50;36.48;98850.20;1781822;79;20927;-63
2022/01/14 03:11:51;;;;;;;6.00;5.50;;;;;;;17.54;36.33;98843.37;1789634;79;21199;-66
2022/01/14 03:14:25;;;;;;;6.53;5.28;;;;;;;17.53;36.24;98835.81;1720609;82;20891;-66
2022/01/14 03:16:50;;;;;;;5.78;5.20;;;;;;;17.56;36.17;98825.95;1756736;79;20912;-65
2022/01/14 03:19:21;;;;;;;5.78;5.17;;;;;;;17.55;36.21;98826.16;1785998;79;20935;-63
2022/01/14 03:21:45;;;;;;;5.72;5.22;;;;;;;17.58;36.10;98827.87;1770983;79;20921;-64
2022/01/14 03:26:42;;;;;;;5.75;5.25;;;;;;;17.67;35.86;98810.38;1774692;79;21489;-66
2022/01/14 03:29:08;;;;;;;6.30;4.95;;;;;;;17.67;36.00;98818.44;1775995;79;20880;-64
2022/01/14 03:31:35;;;;;;;5.75;5.15;;;;;;;17.69;36.10;98806.09;1784816;79;21017;-65
2022/01/14 03:34:01;;;;;;;6.42;5.80;;;;;;;17.63;36.09;98810.52;1787554;79;20963;-66
2022/01/14 03:36:28;;;;;;;6.12;5.53;;;;;;;17.70;35.97;98802.36;1780389;79;21124;-66
2022/01/14 03:38:56;;;;;;;7.05;5.60;;;;;;;17.59;35.87;98811.22;1778133;79;20916;-65
2022/01/14 03:41:23;;;;;;;6.22;5.72;;;;;;;17.51;35.99;98808.83;1791399;79;20962;-65
2022/01/14 03:43:49;;;;;;;6.72;5.45;;;;;;;17.53;36.00;98804.89;1780411;79;21085;-66
2022/01/14 03:46:15;;;;;;;5.15;4.58;;;;;;;17.59;35.86;98792.40;1786251;79;20999;-64
2022/01/14 03:48:42;;;;;;;6.95;5.80;;;;;;;17.63;35.79;98799.77;1791766;79;21149;-62
2022/01/14 03:51:09;;;;;;;6.12;5.60;;;;;;;17.59;35.81;98791.05;1791725;79;20837;-63
2022/01/14 03:53:37;;;;;;;7.00;6.30;;;;;;;17.60;35.82;98806.12;1779434;79;20923;-66
2022/01/14 03:56:04;;;;;;;6.47;5.87;;;;;;;17.68;36.45;98778.89;1798086;79;21541;-65
2022/01/14 03:58:31;;;;;;;6.03;5.45;;;;;;;17.75;35.63;98788.48;1783985;79;20985;-65
2022/01/14 04:00:57;;;;;;;6.50;5.90;;;;;;;17.80;35.65;98782.42;1788654;79;21491;-63
2022/01/14 04:03:24;;;;;;;6.80;6.10;;;;;;;17.88;35.45;98780.73;1790140;79;21119;-65
2022/01/14 04:05:51;;;;;;;7.70;5.75;;;;;;;17.96;35.28;98780.91;1791056;79;20927;-66
2022/01/14 04:08:17;;;;;;;6.22;5.62;;;;;;;17.98;35.30;98772.06;1791555;79;21366;-66
2022/01/14 04:10:45;;;;;;;6.05;5.53;;;;;;;17.97;35.99;98763.69;1795778;79;20984;-66
2022/01/14 04:13:20;;;;;;;6.78;5.78;;;;;;;17.97;35.81;98756.97;1786290;79;21801;-65
2022/01/14 04:15:47;;;;;;;6.25;5.62;;;;;;;17.96;35.58;98767.45;1790878;79;20884;-65
2022/01/14 04:18:19;;;;;;;5.97;5.40;;;;;;;17.97;35.42;98753.75;1784694;79;21465;-64
2022/01/14 04:20:48;;;;;;;6.30;5.70;;;;;;;17.98;35.32;98756.75;1793902;79;20974;-64
2022/01/14 04:23:18;;;;;;;6.83;5.75;;;;;;;18.01;35.16;98740.66;1780478;79;20970;-64
2022/01/14 04:25:45;;;;;;;7.35;6.15;;;;;;;18.00;35.02;98735.80;1781899;79;21144;-65
2022/01/14 04:28:12;;;;;;;6.50;5.90;;;;;;;17.94;35.00;98724.62;1772971;79;20916;-65
2022/01/14 04:30:39;;;;;;;6.97;6.10;;;;;;;17.90;34.99;98723.47;1786492;79;20919;-65
2022/01/14 04:33:05;;;;;;;7.65;6.95;;;;;;;17.98;34.89;98712.87;1775501;79;21107;-65
2022/01/14 04:35:33;;;;;;;7.60;6.62;;;;;;;17.97;34.88;98712.56;1791901;79;20887;-65
2022/01/14 04:37:59;;;;;;;7.67;6.87;;;;;;;17.96;35.12;98706.91;1784136;79;23296;-63
2022/01/14 04:40:26;;;;;;;7.15;6.45;;;;;;;17.99;34.98;98684.36;1799302;79;21560;-63
2022/01/14 04:42:53;;;;;;;6.22;5.62;;;;;;;17.99;34.89;98685.70;1785703;79;20880;-64
2022/01/14 04:45:42;;;;;;;7.10;6.40;;;;;;;18.01;34.81;98686.84;1779391;79;21119;-63
2022/01/14 04:47:55;;;;;;;7.17;6.47;;;;;;;17.93;35.36;98689.89;1773927;79;20993;-65
2022/01/14 04:50:22;;;;;;;7.20;6.50;;;;;;;17.98;35.25;98678.70;1793965;79;21552;-65
2022/01/14 04:52:49;;;;;;;7.92;7.08;;;;;;;17.80;35.26;98684.23;1788554;79;20920;-67
2022/01/14 04:55:18;;;;;;;8.08;7.28;;;;;;;17.70;35.32;98679.98;1780814;79;20832;-66
2022/01/14 04:57:45;;;;;;;7.35;6.65;;;;;;;17.60;35.41;98678.38;1785127;79;20988;-65
2022/01/14 05:00:15;;;;;;;7.05;6.45;;;;;;;17.57;35.51;98688.28;1777907;79;20943;-65
2022/01/14 05:02:42;;;;;;;7.10;6.35;;;;;;;17.68;35.43;98678.84;1796018;79;21951;-64
2022/01/14 05:05:09;;;;;;;6.65;5.80;;;;;;;17.64;35.42;98690.31;1801553;79;20927;-66
2022/01/14 05:07:36;;;;;;;7.60;6.50;;;;;;;17.57;35.61;98688.28;1783677;79;20970;-67
2022/01/14 05:12:40;;;;;;;6.83;6.17;;;;;;;17.65;35.87;98691.97;1778605;79;21022;-66
2022/01/14 05:15:08;;;;;;;6.90;6.17;;;;;;;17.72;35.65;98681.89;1787270;79;21119;-65
2022/01/14 05:17:35;;;;;;;6.95;6.08;;;;;;;17.77;35.74;98688.73;1788036;79;20950;-63
2022/01/14 05:20:01;;;;;;;7.42;6.72;;;;;;;17.81;35.52;98687.20;1799076;79;20955;-65
2022/01/14 05:22:28;;;;;;;7.58;6.87;;;;;;;17.63;35.74;98682.77;1787775;79;21430;-64
2022/01/14 05:24:54;;;;;;;7.97;7.17;;;;;;;17.61;35.86;98684.06;1797416;79;20971;-64
2022/01/14 05:27:20;;;;;;;7.70;7.00;;;;;;;17.58;35.99;98682.66;1790815;79;21103;-66
2022/01/14 05:29:46;;;;;;;8.25;7.35;;;;;;;17.68;36.01;98694.16;1795091;79;21462;-65
2022/01/14 05:32:14;;;;;;;7.15;6.53;;;;;;;17.69;36.04;98692.60;1787602;79;20927;-65
2022/01/14 05:34:43;;;;;;;6.87;6.28;;;;;;;17.73;35.89;98693.75;1737982;82;20950;-64
2022/01/14 05:37:09;;;;;;;6.75;6.05;;;;;;;17.83;35.63;98695.32;1754870;81;20915;-60
2022/01/14 05:39:35;;;;;;;8.88;6.95;;;;;;;17.87;35.58;98690.30;1730093;82;21138;-60
2022/01/14 05:42:02;;;;;;;7.28;6.62;;;;;;;17.81;35.71;98682.64;1754332;80;20947;-59
2022/01/14 05:44:31;;;;;;;7.72;7.03;;;;;;;17.72;35.83;98674.66;1709576;82;20902;-59
2022/01/14 05:46:59;;;;;;;7.97;6.87;;;;;;;17.83;36.93;98664.94;1732713;81;20875;-64
2022/01/14 05:49:26;;;;;;;8.18;7.30;;;;;;;17.74;36.42;98651.02;1747252;81;20884;-66
2022/01/14 05:51:53;;;;;;;9.73;7.58;;;;;;;17.79;36.59;98659.72;1795378;79;21142;-63
2022/01/14 05:54:20;;;;;;;8.63;7.80;;;;;;;17.89;36.36;98647.30;1775339;79;21612;-62
2022/01/14 05:56:46;;;;;;;8.78;7.87;;;;;;;17.87;36.11;98648.59;1766160;80;20888;-63
2022/01/14 05:59:13;;;;;;;9.05;8.00;;;;;;;17.78;36.33;98653.52;1763773;80;20957;-63
2022/01/14 06:01:40;;;;;;;8.08;7.22;;;;;;;17.80;36.97;98638.50;1767581;80;21584;-67
2022/01/14 06:04:08;;;;;;;9.00;7.45;;;;;;;17.81;36.55;98641.46;1763981;80;21216;-67
2022/01/14 06:06:38;;;;;;;11.45;8.10;;;;;;;17.77;36.49;98655.11;1760121;80;21051;-62
2022/01/14 06:09:06;;;;;;;7.95;7.15;;;;;;;17.84;36.30;98663.34;1771351;80;21074;-65
2022/01/14 06:11:33;;;;;;;8.28;6.97;;;;;;;17.83;36.97;98648.80;1766156;80;20986;-67
2022/01/14 06:14:00;;;;;;;8.83;7.90;;;;;;;17.87;37.10;98645.91;1706092;82;20963;-66
2022/01/14 06:16:26;;;;;;;8.70;7.90;;;;;;;17.91;36.95;98645.70;1758793;80;21152;-65
2022/01/14 06:18:56;;;;;;;8.65;7.75;;;;;;;17.90;36.57;98641.41;1763268;80;21560;-65
2022/01/14 06:21:23;;;;;;;8.63;7.80;;;;;;;17.96;36.29;98630.22;1770984;80;21517;-64
2022/01/14 06:23:50;;;;;;;8.63;7.72;;;;;;;17.93;36.16;98623.44;1761489;80;20979;-66
2022/01/14 06:26:18;;;;;;;9.63;7.95;;;;;;;17.87;36.30;98644.56;1761643;80;20887;-64
2022/01/14 06:28:48;;;;;;;9.20;8.28;;;;;;;17.87;37.24;98644.04;1763683;80;21098;-67
2022/01/14 06:31:15;;;;;;;9.33;7.65;;;;;;;17.96;36.32;98653.09;1758897;80;21529;-63
2022/01/14 06:33:45;;;;;;;8.73;7.72;;;;;;;17.97;36.00;98657.40;1768157;80;21003;-65
2022/01/14 06:36:14;;;;;;;8.65;7.75;;;;;;;18.04;35.83;98633.34;1776077;80;21525;-63
2022/01/14 06:38:41;;;;;;;10.65;7.65;;;;;;;18.00;35.79;98634.06;1758802;80;20999;-64
2022/01/14 06:41:08;;;;;;;8.70;7.55;;;;;;;17.95;36.18;98636.64;1760574;80;21136;-64
2022/01/14 06:43:35;;;;;;;7.33;6.62;;;;;;;17.98;39.65;98625.41;1767193;80;20919;-65
2022/01/14 06:46:02;;;;;;;7.80;6.67;;;;;;;18.10;37.15;98631.05;1775654;80;20899;-63
2022/01/14 06:48:28;;;;;;;8.85;6.90;;;;;;;18.15;36.51;98620.38;1758856;80;21508;-64
2022/01/14 06:50:55;;;;;;;8.60;7.08;;;;;;;18.13;36.25;98611.73;1756692;80;20974;-63
2022/01/14 06:53:21;;;;;;;9.18;7.50;;;;;;;18.11;36.10;98618.41;1769444;80;21107;-66
2022/01/14 06:55:48;;;;;;;10.05;8.43;;;;;;;18.00;36.40;98607.97;1761021;80;21488;-66
2022/01/14 06:58:14;;;;;;;9.30;7.35;;;;;;;17.96;36.84;98605.48;1765281;80;20974;-65
2022/01/14 07:00:41;;;;;;;8.30;7.53;;;;;;;17.90;37.03;98607.77;1758940;80;21556;-64
2022/01/14 07:03:08;;;;;;;9.10;7.40;;;;;;;17.89;36.88;98610.16;1760008;80;20962;-64
2022/01/14 07:05:34;;;;;;;8.28;7.45;;;;;;;17.94;36.58;98594.67;1761729;80;21764;-67
2022/01/14 07:08:02;;;;;;;8.38;7.03;;;;;;;17.96;36.45;98600.09;1754627;80;20938;-67
2022/01/14 07:10:29;;;;;;;8.58;7.60;;;;;;;17.99;37.14;98584.00;1757776;80;21513;-62
2022/01/14 07:12:55;;;;;;;9.08;7.42;;;;;;;18.04;36.68;98580.86;1756848;80;20961;-63
2022/01/14 07:15:22;;;;;;;7.10;6.22;;;;;;;18.05;36.49;98573.61;1761826;80;21473;-65
2022/01/14 07:17:48;;;;;;;8.35;7.45;;;;;;;18.02;36.18;98567.36;1762460;80;21761;-62
2022/01/14 07:20:17;;;;;;;8.33;6.58;;;;;;;17.99;36.06;98562.48;1754785;80;21020;-62
2022/01/14 07:22:46;;;;;;;7.08;6.37;;;;;;;18.06;35.84;98555.89;1752439;80;21050;-62
2022/01/14 07:25:13;;;;;;;6.97;6.28;;;;;;;18.15;35.66;98565.20;1757578;80;20994;-62
2022/01/14 07:27:39;;;;;;;7.37;6.17;;;;;;;18.15;35.67;98557.12;1778468;80;20931;-62
2022/01/14 07:30:08;;;;;;;7.15;6.42;;;;;;;18.20;35.77;98550.48;1778418;80;21158;-62
2022/01/14 07:32:35;;;;;;;8.40;7.37;;;;;;;18.15;35.59;98555.78;1778275;80;20966;-62
2022/01/14 07:35:02;;;;;;;8.43;6.67;;;;;;;18.00;35.97;98544.73;1757098;80;21465;-61
2022/01/14 07:37:29;;;;;;;7.80;6.70;;;;;;;17.95;35.74;98544.64;1747516;82;20995;-62
2022/01/14 07:39:55;;;;;;;8.33;6.47;;;;;;;18.04;36.03;98536.45;1747545;82;20887;-61
2022/01/14 07:42:21;;;;;;;8.70;6.92;;;;;;;18.14;35.89;98533.16;1747442;82;21134;-64
2022/01/14 07:44:48;;;;;;;7.37;6.25;;;;;;;18.13;35.65;98541.75;1747562;82;20880;-62
2022/01/14 07:47:14;;;;;;;6.85;6.12;;;;;;;18.04;37.62;98537.80;1747270;82;20991;-62
2022/01/14 07:49:40;;;;;;;6.30;5.70;;;;;;;18.05;35.92;98522.48;1746401;82;21116;-63
2022/01/14 07:52:07;;;;;;;8.35;7.35;;;;;;;18.16;35.66;98518.92;1747506;82;21056;-62
2022/01/14 07:54:33;;;;;;;7.72;6.83;;;;;;;18.10;35.60;98522.56;1774923;80;21592;-62
2022/01/14 07:57:00;;;;;;;6.95;6.33;;;;;;;18.06;35.64;98516.05;1785812;80;21767;-63
2022/01/14 07:59:31;;;;;;;6.78;6.08;;;;;;;18.06;35.69;98514.18;1786111;80;21573;-62
2022/01/14 08:02:00;;;;;;;6.78;6.17;;;;;;;17.89;35.97;98514.13;1786829;80;20971;-62
2022/01/14 08:04:27;;;;;;;7.95;7.15;;;;;;;17.86;35.77;98491.73;1786588;80;21014;-63
2022/01/14 08:06:57;;;;;;;8.18;7.45;;;;;;;17.84;35.72;98500.58;1786432;80;21133;-61
2022/01/14 08:09:22;;;;;;;7.15;6.45;;;;;;;17.82;35.88;98489.77;1786427;79;21034;-63
2022/01/14 08:11:49;;;;;;;7.10;6.40;;;;;;;17.81;36.00;98470.64;1787588;80;20888;-63
2022/01/14 08:14:17;;;;;;;6.20;5.60;;;;;;;17.75;36.03;98469.72;1787693;80;20944;-62
2022/01/14 08:16:43;;;;;;;6.05;5.45;;;;;;;17.74;35.97;98460.04;1787821;80;20971;-63
2022/01/14 08:19:10;;;;;;;6.12;5.53;;;;;;;17.72;36.07;98449.23;1787747;80;21141;-62
2022/01/14 08:21:36;;;;;;;5.92;5.42;;;;;;;17.84;35.76;98452.16;1787710;80;20888;-61
2022/01/14 08:24:03;;;;;;;6.03;5.42;;;;;;;17.89;35.65;98426.69;1787719;80;20876;-61
2022/01/14 08:26:31;;;;;;;7.10;6.37;;;;;;;17.87;35.50;98432.02;1787635;80;20983;-62
2022/01/14 08:28:58;;;;;;;5.55;5.05;;;;;;;17.88;35.50;98433.67;1787838;80;21470;-61
2022/01/14 08:31:24;;;;;;;5.80;5.22;;;;;;;17.90;35.44;98419.44;1787679;80;21145;-62
2022/01/14 08:33:50;;;;;;;5.67;5.17;;;;;;;17.90;35.44;98423.47;1787647;80;21002;-61
2022/01/14 08:36:18;;;;;;;5.75;5.15;;;;;;;17.98;35.28;98408.28;1787713;80;21450;-63
2022/01/14 08:38:44;;;;;;;5.28;4.78;;;;;;;18.05;35.19;98405.41;1787717;80;20964;-65
2022/01/14 08:41:11;;;;;;;5.55;5.05;;;;;;;18.02;35.24;98389.75;1787868;80;21054;-62
2022/01/14 08:43:38;;;;;;;6.15;4.47;;;;;;;18.02;35.19;98398.64;1787644;80;21157;-60
2022/01/14 08:46:04;;;;;;;5.28;4.78;;;;;;;18.04;37.96;98392.48;1787676;80;21494;-62
2022/01/14 08:48:30;;;;;;;4.97;4.58;;;;;;;17.86;35.62;98381.95;1787623;80;20931;-61
2022/01/14 08:50:57;;;;;;;5.03;4.20;;;;;;;17.87;38.30;98390.32;1787711;80;20932;-62
2022/01/14 08:53:23;;;;;;;4.90;4.22;;;;;;;17.83;35.93;98389.19;1786390;80;20932;-61
2022/01/14 08:55:50;;;;;;;5.28;4.60;;;;;;;17.82;36.16;98387.55;1773876;81;22143;-62
2022/01/14 08:58:16;;;;;;;4.85;3.87;;;;;;;17.79;36.38;98397.44;1774065;81;20881;-62
2022/01/14 09:00:43;;;;;;;4.87;4.37;;;;;;;17.91;36.57;98399.52;1773977;81;20980;-61
2022/01/14 09:03:09;;;;;;;4.72;4.22;;;;;;;18.06;36.93;98394.95;1773823;81;21597;-62
2022/01/14 09:05:36;;;;;;;4.12;3.67;;;;;;;18.10;36.47;98388.00;1773999;81;20885;-62
2022/01/14 09:08:03;;;;;;;5.10;4.58;;;;;;;18.16;36.36;98393.77;1773904;81;21122;-62
2022/01/14 09:10:29;;;;;;;4.70;4.30;;;;;;;18.28;36.05;98402.56;1773748;81;20885;-61
2022/01/14 09:12:55;;;;;;;4.90;4.37;;;;;;;18.30;36.53;98379.72;1773860;81;20845;-61
2022/01/14 09:15:22;;;;;;;4.78;4.37;;;;;;;18.29;36.63;98374.06;1773899;81;20988;-61
2022/01/14 09:17:48;;;;;;;5.12;4.53;;;;;;;18.32;36.83;98360.64;1774051;81;20881;-61
2022/01/14 09:20:15;;;;;;;5.55;5.05;;;;;;;18.27;36.73;98367.30;1773975;81;21143;-62
2022/01/14 09:22:47;;;;;;;5.33;4.83;;;;;;;18.19;37.47;98351.03;1773862;81;20963;-62
2022/01/14 09:25:11;;;;;;;5.10;4.60;;;;;;;18.20;37.78;98359.38;1773768;80;20980;-62
2022/01/14 09:27:37;;;;;;;4.95;4.42;;;;;;;18.12;37.98;98334.77;1773807;81;20889;-61
2022/01/14 09:30:05;;;;;;;5.53;4.87;;;;;;;18.13;39.28;98353.88;1773746;81;21001;-62
2022/01/14 09:32:33;;;;;;;4.65;4.05;;;;;;;18.04;38.60;98346.73;1773782;81;21521;-61
2022/01/14 09:35:06;;;;;;;5.45;4.95;;;;;;;18.01;38.67;98337.84;1773816;81;20881;-62
2022/01/14 09:37:28;;;;;;;4.72;4.33;;;;;;;17.98;38.63;98346.39;1772146;80;20873;-62
2022/01/14 09:39:54;;;;;;;5.12;4.62;;;;;;;17.96;39.02;98331.03;1773739;81;20933;-61
2022/01/14 09:42:20;;;;;;;5.17;4.70;;;;;;;17.94;40.52;98328.30;1773911;81;21004;-63
2022/01/14 09:44:47;;;;;;;5.35;4.85;;;;;;;17.96;40.56;98313.54;1773888;81;23337;-62
2022/01/14 09:47:18;;;;;;;5.05;4.53;;;;;;;17.95;40.15;98296.28;1773682;81;20986;-62
2022/01/14 09:49:45;;;;;;;5.83;5.33;;;;;;;17.64;40.87;98305.22;1773759;81;20933;-63
2022/01/14 09:52:12;;;;;;;4.83;4.40;;;;;;;17.68;40.58;98292.89;1773970;81;20995;-61
2022/01/14 09:54:42;;;;;;;5.30;4.80;;;;;;;17.65;40.47;98297.97;1780541;80;21033;-62
2022/01/14 09:57:11;;;;;;;4.90;4.47;;;;;;;17.59;40.96;98298.93;1787680;80;21114;-61
2022/01/14 09:59:39;;;;;;;4.87;4.40;;;;;;;17.66;40.80;98304.95;1787659;80;20947;-62
2022/01/14 10:02:05;;;;;;;5.08;4.58;;;;;;;17.78;40.42;98299.78;1787670;80;20885;-62
2022/01/14 10:04:32;;;;;;;5.00;4.47;;;;;;;17.85;40.50;98290.22;1787669;80;20979;-62
2022/01/14 10:07:00;;;;;;;4.83;4.40;;;;;;;17.75;40.56;98291.41;1787701;80;20920;-61
2022/01/14 10:09:36;;;;;;;5.03;4.00;;;;;;;17.75;44.16;98291.41;1787605;80;21156;-68
2022/01/14 10:12:16;;;;;;;4.70;4.25;;;;;;;17.62;41.24;98285.00;1787697;80;20924;-62
2022/01/14 10:14:57;;;;;;;5.28;4.65;;;;;;;17.58;41.05;98297.29;1791052;78;21005;-69
2022/01/14 10:17:25;;;;;;;4.17;3.62;;;;;;;17.57;41.74;98291.64;1814675;78;20954;-65
2022/01/14 10:19:52;;;;;;;4.75;4.33;;;;;;;17.52;41.42;98272.70;1816081;78;20942;-64
2022/01/14 10:22:25;;;;;;;4.58;4.17;;;;;;;17.74;44.17;98276.31;1808648;78;20948;-66
2022/01/14 10:25:08;;;;;;;5.28;4.12;;;;;;;17.79;41.53;98275.05;1784687;78;20914;-64
2022/01/14 10:27:50;;;;;;;4.87;4.20;;;;;;;17.87;40.89;98262.53;1807533;78;20924;-63
2022/01/14 10:30:32;;;;;;;4.42;3.95;;;;;;;17.75;43.10;98261.27;1808263;78;20947;-63
2022/01/14 10:33:07;;;;;;;5.22;4.72;;;;;;;17.77;43.15;98247.59;1770617;78;20970;-61
2022/01/14 10:35:41;;;;;;;5.75;4.70;;;;;;;17.68;42.79;98226.19;1806469;78;21057;-62
2022/01/14 10:38:11;;;;;;;5.05;4.22;;;;;;;17.65;41.98;98217.29;1812883;78;20970;-62
2022/01/14 10:40:56;;;;;;;4.85;3.98;;;;;;;17.41;41.42;98230.58;1801857;78;20965;-61
2022/01/14 10:43:32;;;;;;;5.35;4.85;;;;;;;17.41;41.70;98211.75;1794032;78;20897;-62
2022/01/14 10:45:59;;;;;;;;;;;;;;;17.45;41.80;98194.88;1811244;78;21143;-60
2022/01/14 10:48:31;;;;;;;5.90;4.50;;;;;;;17.52;41.36;98185.33;1811785;78;21025;-63
2022/01/14 10:51:03;;;;;;;7.85;5.30;;;;;;;17.54;41.49;98178.67;1794504;78;21457;-62
2022/01/14 10:53:35;;;;;;;5.22;4.60;;;;;;;17.69;41.50;98170.83;1799657;78;20950;-64
2022/01/14 10:56:05;;;;;;;5.30;4.80;;;;;;;17.82;41.34;98169.13;1797133;78;20938;-61
2022/01/14 10:58:41;;;;;;;5.20;4.30;;;;;;;17.88;41.31;98160.60;1795468;79;21003;-61
2022/01/14 11:01:20;;;;;;;4.22;3.83;;;;;;;17.90;41.16;98149.05;1789447;79;21145;-63
2022/01/14 11:03:53;;;;;;;5.12;3.90;;;;;;;17.81;40.88;98140.59;1788794;79;20856;-61
2022/01/14 11:06:38;;;;;;;4.28;3.87;;;;;;;17.80;40.91;98132.26;1798113;79;21030;-63
2022/01/14 11:09:18;;;;;;;3.95;3.08;;;;;;;17.81;45.64;98129.02;1791823;79;20896;-63
2022/01/14 11:11:46;;;;;;;4.92;4.53;;;;;;;17.84;41.13;98128.52;1788181;79;21023;-61
2022/01/14 11:14:13;;;;;;;4.45;4.00;;;;;;;17.77;41.05;98135.44;1793587;79;21135;-65
2022/01/14 11:16:40;;;;;;;3.70;3.40;;;;;;;17.86;41.00;98114.28;1791356;79;21045;-61
2022/01/14 11:19:09;;;;;;;4.17;3.77;;;;;;;17.89;40.74;98111.09;1797704;79;20915;-61
2022/01/14 11:24:33;;;;;;;4.15;3.75;;;;;;;18.01;42.82;98102.92;1787281;79;21055;-65
2022/01/14 11:27:10;;;;;;;3.70;3.40;;;;;;;18.08;42.42;98088.20;1792223;79;21160;-64
2022/01/14 11:29:41;;;;;;;2.80;2.60;;;;;;;17.91;41.70;98084.75;1790542;79;20927;-65
2022/01/14 11:32:09;;;;;;;3.52;2.95;;;;;;;17.92;41.12;98070.78;1789602;79;21501;-63
2022/01/14 11:34:43;;;;;;;3.00;2.80;;;;;;;17.89;41.45;98089.05;1792570;79;20892;-62
2022/01/14 11:37:16;;;;;;;3.40;3.10;;;;;;;17.76;40.98;98064.39;1794150;79;21111;-63
2022/01/14 11:40:00;;;;;;;3.90;3.15;;;;;;;17.68;41.22;98060.80;1792613;79;21126;-63
2022/01/14 11:42:49;;;;;;;4.17;3.47;;;;;;;17.69;41.56;98052.49;1790574;79;20907;-61
2022/01/14 11:45:21;;;;;;;3.65;3.20;;;;;;;17.70;42.04;98067.55;1779386;79;21004;-63
2022/01/14 11:47:58;;;;;;;3.70;3.37;;;;;;;17.80;42.21;98060.98;1776657;79;20911;-63
2022/01/14 11:50:32;;;;;;;4.75;4.00;;;;;;;17.81;41.38;98048.31;1798480;79;20899;-62
2022/01/14 11:52:59;;;;;;;5.85;4.35;;;;;;;17.92;41.16;98030.42;1797913;79;21830;-63
2022/01/14 11:55:35;;;;;;;5.12;3.83;;;;;;;17.98;40.95;98036.97;1794463;79;20875;-61
2022/01/14 11:58:05;;;;;;;3.92;3.52;;;;;;;18.06;40.81;98038.39;1779635;79;26661;-60
2022/01/14 12:00:41;;;;;;;4.22;3.17;;;;;;;18.08;40.54;98021.45;1782406;79;20915;-63
2022/01/14 12:03:14;;;;;;;4.50;3.17;;;;;;;18.06;40.40;98024.94;1787761;79;21029;-64
2022/01/14 12:05:56;;;;;;;3.15;2.72;;;;;;;18.05;40.24;98034.06;1786432;79;21158;-61
2022/01/14 12:08:35;;;;;;;3.58;3.27;;;;;;;17.94;40.16;98018.34;1782328;79;20883;-63